Time;durP1;ratioP1;P1;durP2;ratioP2;P2;SDS_P1;SDS_P2;PMS_P1;PMS_P2;Temp;Humidity;BMP_temperature;BMP_pressure;BME280_temperature;BME280_humidity;BME280_pressure;Samples;Min_cycle;Max_cycle;Signal;HPM_P1;HPM_P2
2022/02/13 00:00:27;;;;;;;12.88;7.13;;;1.30;97.00;;;;;;4947867;29;20052;-79
2022/02/13 00:05:30;;;;;;;13.73;7.20;;;1.20;97.30;;;;;;5063861;23;20047;-80
2022/02/13 00:08:00;;;;;;;14.15;7.53;;;1.20;97.30;;;;;;4935812;29;20118;-79
2022/02/13 00:10:28;;;;;;;13.40;7.40;;;1.20;97.20;;;;;;4935371;29;20047;-79
2022/02/13 00:12:56;;;;;;;12.55;7.00;;;1.20;97.30;;;;;;4935949;29;20135;-80
2022/02/13 00:15:23;;;;;;;12.52;7.22;;;1.20;97.40;;;;;;4936170;29;20122;-80
2022/02/13 00:17:50;;;;;;;11.23;6.75;;;1.20;97.40;;;;;;4935937;29;20394;-81
2022/02/13 00:20:17;;;;;;;11.98;6.90;;;1.20;97.50;;;;;;4935929;29;20142;-80
2022/02/13 00:22:44;;;;;;;13.07;7.10;;;1.30;97.60;;;;;;4935916;29;20055;-80
2022/02/13 00:25:11;;;;;;;12.73;6.97;;;1.30;97.60;;;;;;4935830;29;20050;-80
2022/02/13 00:27:40;;;;;;;11.07;6.95;;;1.20;97.70;;;;;;4935853;29;20138;-80
2022/02/13 00:30:11;;;;;;;12.85;7.13;;;1.30;97.60;;;;;;4936223;29;20051;-80
2022/02/13 00:32:39;;;;;;;12.15;6.45;;;1.30;97.70;;;;;;4919645;29;20103;-81
2022/02/13 00:35:07;;;;;;;10.85;6.47;;;1.30;97.70;;;;;;4936230;29;20481;-84
2022/02/13 00:37:34;;;;;;;11.50;6.88;;;1.20;97.60;;;;;;4936577;29;20138;-81
2022/02/13 00:40:01;;;;;;;14.32;7.22;;;1.20;97.60;;;;;;4935840;29;20067;-81
2022/02/13 00:42:28;;;;;;;13.02;6.95;;;1.20;97.80;;;;;;4936473;29;20136;-82
2022/02/13 00:44:59;;;;;;;11.45;6.57;;;1.10;97.50;;;;;;4936640;29;20052;-83
2022/02/13 00:47:26;;;;;;;9.75;6.18;;;1.10;97.70;;;;;;4936950;29;20052;-82
2022/02/13 00:49:53;;;;;;;14.02;7.28;;;1.10;97.70;;;;;;4936679;29;20134;-83
2022/02/13 00:52:20;;;;;;;18.90;8.50;;;1.00;97.40;;;;;;4936696;29;20048;-82
2022/02/13 00:54:47;;;;;;;16.45;9.18;;;0.90;97.60;;;;;;4935757;29;20178;-80
2022/02/13 00:57:14;;;;;;;15.20;8.00;;;0.80;97.80;;;;;;4935856;29;20169;-81
2022/02/13 00:59:41;;;;;;;15.20;7.95;;;0.70;98.10;;;;;;4935735;29;20050;-80
2022/02/13 01:02:10;;;;;;;13.90;8.10;;;0.60;98.40;;;;;;4935533;29;20572;-80
2022/02/13 01:04:37;;;;;;;13.63;7.85;;;0.60;98.50;;;;;;4934909;29;20094;-80
2022/02/13 01:07:04;;;;;;;11.65;7.20;;;0.60;98.50;;;;;;4934876;29;20058;-81
2022/02/13 01:09:32;;;;;;;13.40;7.20;;;0.60;98.30;;;;;;4935420;29;20051;-81
2022/02/13 01:12:00;;;;;;;11.00;6.65;;;0.60;98.10;;;;;;4935566;29;20048;-81
2022/02/13 01:14:27;;;;;;;12.88;7.15;;;0.60;98.20;;;;;;4935472;29;20048;-81
2022/02/13 01:16:54;;;;;;;12.35;6.80;;;0.60;98.40;;;;;;4935198;29;20052;-81
2022/02/13 01:19:22;;;;;;;13.43;6.88;;;0.50;98.70;;;;;;4935257;29;20166;-81
2022/02/13 01:21:49;;;;;;;11.70;7.03;;;0.50;98.90;;;;;;4935252;29;20043;-81
2022/02/13 01:24:16;;;;;;;12.30;6.95;;;0.60;99.00;;;;;;4935412;29;20062;-81
2022/02/13 01:26:43;;;;;;;12.65;6.90;;;0.60;98.90;;;;;;4935263;29;20048;-81
2022/02/13 01:29:10;;;;;;;11.80;7.15;;;0.60;98.90;;;;;;4939145;29;20058;-81
2022/02/13 01:31:39;;;;;;;11.57;6.63;;;0.70;99.20;;;;;;4939034;29;20527;-80
2022/02/13 01:34:06;;;;;;;11.35;6.85;;;0.70;98.90;;;;;;4938837;29;20047;-80
2022/02/13 01:36:34;;;;;;;12.45;6.60;;;0.70;98.80;;;;;;4939259;29;20138;-81
2022/02/13 01:39:01;;;;;;;10.48;6.15;;;0.70;98.90;;;;;;4938934;29;20564;-81
2022/02/13 01:41:28;;;;;;;11.68;7.10;;;0.70;98.70;;;;;;4939179;29;20075;-81
2022/02/13 01:43:57;;;;;;;10.32;6.35;;;0.70;98.80;;;;;;4938972;29;20058;-81
2022/02/13 01:46:24;;;;;;;12.02;6.72;;;0.70;98.80;;;;;;4939436;29;20205;-80
2022/02/13 01:48:51;;;;;;;14.32;6.47;;;0.70;98.90;;;;;;4938772;29;20473;-80
2022/02/13 01:51:19;;;;;;;11.98;7.00;;;0.70;98.80;;;;;;4938740;29;20131;-81
2022/02/13 01:53:48;;;;;;;11.00;6.75;;;0.70;98.50;;;;;;4938999;29;20047;-81
2022/02/13 01:56:15;;;;;;;13.05;6.82;;;0.70;98.50;;;;;;4939494;29;20135;-81
2022/02/13 01:58:42;;;;;;;14.05;7.05;;;0.60;98.30;;;;;;4939064;29;20058;-81
2022/02/13 02:01:10;;;;;;;12.18;6.80;;;0.50;98.40;;;;;;4939438;29;20048;-81
2022/02/13 02:03:37;;;;;;;11.88;7.03;;;0.50;98.60;;;;;;4938857;29;20071;-80
2022/02/13 02:06:04;;;;;;;11.68;7.22;;;0.50;98.80;;;;;;4939067;29;20402;-81
2022/02/13 02:08:31;;;;;;;11.93;6.50;;;0.40;99.00;;;;;;4939296;29;20044;-81
2022/02/13 02:11:00;;;;;;;12.63;6.88;;;0.40;99.10;;;;;;4939014;29;20047;-81
2022/02/13 02:13:27;;;;;;;11.18;6.45;;;0.40;99.40;;;;;;4939060;29;20054;-80
2022/02/13 02:15:54;;;;;;;10.90;6.03;;;0.40;99.20;;;;;;4938861;29;20055;-81
2022/02/13 02:18:21;;;;;;;10.98;6.50;;;0.50;99.30;;;;;;4939408;29;20179;-82
2022/02/13 02:20:49;;;;;;;11.30;6.93;;;0.50;99.50;;;;;;4939143;29;20493;-82
2022/02/13 02:23:18;;;;;;;12.40;6.85;;;0.50;99.20;;;;;;4939294;29;20107;-82
2022/02/13 02:25:45;;;;;;;13.43;7.30;;;0.50;99.20;;;;;;4922214;29;20059;-82
2022/02/13 02:28:12;;;;;;;13.43;6.40;;;0.50;99.20;;;;;;4939295;29;20051;-82
2022/02/13 02:30:39;;;;;;;12.02;6.97;;;0.40;99.20;;;;;;4939174;29;20138;-81
2022/02/13 02:33:11;;;;;;;10.38;6.15;;;0.40;99.10;;;;;;4939053;29;20079;-81
2022/02/13 02:35:38;;;;;;;10.55;6.13;;;0.40;99.40;;;;;;4939063;29;20062;-81
2022/02/13 02:38:05;;;;;;;11.27;6.05;;;0.40;99.20;;;;;;4939670;29;20054;-83
2022/02/13 02:40:34;;;;;;;10.55;6.13;;;0.30;99.40;;;;;;4939311;29;20109;-83
2022/02/13 02:43:01;;;;;;;10.90;6.28;;;0.40;99.90;;;;;;4938768;29;20051;-80
2022/02/13 02:45:28;;;;;;;12.15;6.85;;;0.40;99.70;;;;;;4938765;29;20058;-82
2022/02/13 02:47:55;;;;;;;11.48;6.68;;;0.40;99.80;;;;;;4938795;29;20062;-82
2022/02/13 02:50:22;;;;;;;11.93;7.03;;;0.40;99.60;;;;;;4938535;29;20557;-81
2022/02/13 02:52:49;;;;;;;13.52;7.00;;;0.40;99.50;;;;;;4938634;29;20075;-82
2022/02/13 02:55:16;;;;;;;10.73;6.70;;;0.40;99.40;;;;;;4938641;29;20048;-81
2022/02/13 02:57:45;;;;;;;11.65;6.90;;;0.40;99.30;;;;;;4938500;29;20058;-80
2022/02/13 03:00:13;;;;;;;11.30;6.45;;;0.40;99.30;;;;;;4921652;29;20375;-81
2022/02/13 03:02:40;;;;;;;10.48;5.85;;;0.40;99.50;;;;;;4937746;29;20537;-82
2022/02/13 03:05:08;;;;;;;10.10;5.63;;;0.40;99.60;;;;;;4937839;29;20059;-81
2022/02/13 03:07:35;;;;;;;10.20;5.57;;;0.40;99.70;;;;;;4937964;29;20095;-81
2022/02/13 03:10:03;;;;;;;9.95;5.70;;;0.40;99.60;;;;;;4937827;29;20565;-81
2022/02/13 03:12:30;;;;;;;11.38;6.65;;;0.40;99.70;;;;;;4937892;29;20052;-81
2022/02/13 03:14:58;;;;;;;9.27;6.05;;;0.40;99.50;;;;;;4937946;29;20139;-80
2022/02/13 03:17:25;;;;;;;10.77;6.30;;;0.30;99.40;;;;;;4938065;29;20493;-80
2022/02/13 03:19:52;;;;;;;11.20;6.38;;;0.30;99.50;;;;;;4937890;29;20047;-81
2022/02/13 03:22:19;;;;;;;11.13;6.32;;;0.30;99.60;;;;;;4938105;29;20130;-80
2022/02/13 03:24:46;;;;;;;11.68;6.82;;;0.30;99.50;;;;;;4937900;29;20052;-81
2022/02/13 03:27:13;;;;;;;11.52;6.05;;;0.30;99.40;;;;;;4938378;29;20265;-80
2022/02/13 03:29:40;;;;;;;11.55;6.72;;;0.30;99.30;;;;;;4924119;29;20075;-80
2022/02/13 03:32:09;;;;;;;10.23;5.90;;;0.30;99.70;;;;;;4938403;29;20056;-81
2022/02/13 03:34:36;;;;;;;10.25;5.88;;;0.20;99.70;;;;;;4938132;29;20130;-81
2022/02/13 03:37:04;;;;;;;10.25;6.38;;;0.20;99.70;;;;;;4938328;29;20470;-82
2022/02/13 03:39:31;;;;;;;10.48;6.38;;;0.20;99.60;;;;;;4938306;29;20090;-81
2022/02/13 03:41:59;;;;;;;9.48;6.05;;;0.10;99.70;;;;;;4938211;29;20092;-81
2022/02/13 03:44:26;;;;;;;9.90;6.07;;;0.10;99.90;;;;;;4938446;29;20051;-81
2022/02/13 03:46:53;;;;;;;10.82;6.07;;;0.10;99.90;;;;;;4938763;29;20079;-81
2022/02/13 03:49:22;;;;;;;10.20;5.90;;;0.10;99.90;;;;;;4938364;29;20103;-82
2022/02/13 03:51:49;;;;;;;10.40;6.50;;;0.00;99.90;;;;;;4937622;29;20043;-82
2022/02/13 03:54:16;;;;;;;11.27;6.03;;;0.00;99.90;;;;;;4938360;29;20197;-81
2022/02/13 03:56:43;;;;;;;10.77;6.28;;;0.00;99.90;;;;;;4937830;29;20135;-82
2022/02/13 03:59:11;;;;;;;9.60;5.72;;;0.00;99.90;;;;;;4938417;29;20051;-83
2022/02/13 04:01:38;;;;;;;10.30;6.10;;;0.00;99.90;;;;;;4938417;29;20052;-82
2022/02/13 04:04:05;;;;;;;11.20;6.30;;;-0.10;99.90;;;;;;4937627;29;20138;-81
2022/02/13 04:06:34;;;;;;;9.95;5.53;;;-0.10;99.90;;;;;;4937850;29;20131;-81
2022/02/13 04:09:02;;;;;;;9.70;5.20;;;-0.10;99.90;;;;;;4938100;29;20132;-81
2022/02/13 04:11:29;;;;;;;10.55;5.75;;;-0.10;99.90;;;;;;4937461;29;20052;-81
2022/02/13 04:13:56;;;;;;;9.20;5.65;;;-0.10;99.90;;;;;;4920309;29;20142;-80
2022/02/13 04:16:23;;;;;;;9.93;5.85;;;-0.10;99.90;;;;;;4936892;29;20138;-81
2022/02/13 04:18:50;;;;;;;11.68;5.78;;;-0.10;99.90;;;;;;4936705;29;20135;-80
2022/02/13 04:21:17;;;;;;;11.48;6.38;;;-0.10;99.90;;;;;;4936785;29;20489;-81
2022/02/13 04:23:46;;;;;;;11.00;5.68;;;0.00;99.90;;;;;;4936535;29;20136;-80
2022/02/13 04:26:13;;;;;;;11.98;5.97;;;0.00;99.90;;;;;;4936677;29;20052;-80
2022/02/13 04:28:40;;;;;;;10.88;6.32;;;0.00;99.90;;;;;;4936510;29;20139;-81
2022/02/13 04:31:07;;;;;;;11.10;6.30;;;0.00;99.90;;;;;;4936666;29;20452;-81
2022/02/13 04:33:34;;;;;;;13.70;6.05;;;0.00;99.90;;;;;;4936417;29;20054;-81
2022/02/13 04:36:01;;;;;;;11.35;6.32;;;0.00;99.90;;;;;;4936826;29;20130;-81
2022/02/13 04:38:28;;;;;;;10.55;5.88;;;0.00;99.90;;;;;;4936809;29;20060;-81
2022/02/13 04:40:57;;;;;;;11.18;6.10;;;0.00;99.90;;;;;;4936287;29;20131;-81
2022/02/13 04:43:24;;;;;;;10.35;5.90;;;-0.10;99.90;;;;;;4937490;29;20130;-81
2022/02/13 04:45:51;;;;;;;10.13;5.68;;;-0.10;99.90;;;;;;4936756;29;20094;-81
2022/02/13 04:48:18;;;;;;;10.50;5.68;;;-0.10;99.90;;;;;;4936803;29;20139;-81
2022/02/13 04:50:45;;;;;;;9.68;5.57;;;-0.10;99.90;;;;;;4936238;29;20090;-79
2022/02/13 04:53:12;;;;;;;10.00;6.00;;;-0.10;99.90;;;;;;4935929;29;20079;-80
2022/02/13 04:55:39;;;;;;;10.48;5.85;;;-0.10;99.90;;;;;;4935976;29;20048;-80
2022/02/13 04:58:08;;;;;;;11.38;6.40;;;-0.10;99.90;;;;;;4935953;29;20146;-81
2022/02/13 05:00:35;;;;;;;11.00;6.32;;;-0.10;99.90;;;;;;4936438;29;20149;-81
2022/02/13 05:03:02;;;;;;;10.80;6.47;;;-0.10;99.90;;;;;;4936281;29;20117;-82
2022/02/13 05:05:29;;;;;;;11.25;5.90;;;-0.20;99.90;;;;;;4937308;29;20159;-83
2022/02/13 05:07:56;;;;;;;9.82;6.10;;;-0.30;99.90;;;;;;4937297;29;20139;-80
2022/02/13 05:10:23;;;;;;;12.82;6.22;;;-0.40;99.90;;;;;;4936478;29;20468;-80
2022/02/13 05:12:50;;;;;;;10.18;6.30;;;-0.40;99.90;;;;;;4936486;29;20139;-80
2022/02/13 05:15:21;;;;;;;10.32;5.70;;;-0.40;99.90;;;;;;4935520;29;20086;-79
2022/02/13 05:17:49;;;;;;;10.63;5.80;;;-0.40;99.90;;;;;;4936024;29;20406;-79
2022/02/13 05:20:16;;;;;;;10.73;6.10;;;-0.40;99.90;;;;;;4936076;29;20063;-80
2022/02/13 05:22:43;;;;;;;12.77;6.40;;;-0.40;99.90;;;;;;4935732;29;20416;-79
2022/02/13 05:25:10;;;;;;;11.40;6.72;;;-0.30;99.90;;;;;;4935780;29;20055;-80
2022/02/13 05:27:37;;;;;;;10.32;6.20;;;-0.30;99.90;;;;;;4935834;29;20156;-80
2022/02/13 05:30:06;;;;;;;11.15;6.00;;;-0.30;99.90;;;;;;4936495;29;20054;-80
2022/02/13 05:32:34;;;;;;;11.18;6.72;;;-0.30;99.90;;;;;;4937598;29;20553;-81
2022/02/13 05:35:02;;;;;;;12.25;7.55;;;-0.40;99.90;;;;;;4936658;29;20107;-80
2022/02/13 05:37:30;;;;;;;16.45;8.60;;;-0.50;99.90;;;;;;4936871;29;20390;-80
2022/02/13 05:39:57;;;;;;;13.23;8.00;;;-0.60;99.90;;;;;;4936534;29;20063;-81
2022/02/13 05:42:24;;;;;;;14.35;8.25;;;-0.60;99.90;;;;;;4936534;29;20048;-81
2022/02/13 05:44:52;;;;;;;16.10;8.48;;;-0.60;99.90;;;;;;4936531;29;20056;-80
2022/02/13 05:47:19;;;;;;;13.70;7.60;;;-0.60;99.90;;;;;;4936154;29;20044;-79
2022/02/13 05:49:48;;;;;;;14.65;7.30;;;-0.50;99.90;;;;;;4935909;29;20147;-80
2022/02/13 05:52:15;;;;;;;13.60;7.15;;;-0.50;99.90;;;;;;4936012;29;20090;-81
2022/02/13 05:54:42;;;;;;;11.85;6.72;;;-0.40;99.90;;;;;;4935970;29;20062;-82
2022/02/13 05:57:09;;;;;;;11.07;7.05;;;-0.30;99.90;;;;;;4935866;29;20137;-81
2022/02/13 05:59:37;;;;;;;13.43;7.03;;;-0.30;99.90;;;;;;4935930;29;20494;-81
2022/02/13 06:02:05;;;;;;;11.80;6.63;;;-0.30;99.90;;;;;;4936145;29;20059;-78
2022/02/13 06:04:32;;;;;;;12.48;6.80;;;-0.30;99.90;;;;;;4935617;29;20055;-81
2022/02/13 06:07:00;;;;;;;11.23;7.15;;;-0.30;99.90;;;;;;4936427;29;20161;-80
2022/02/13 06:09:28;;;;;;;14.80;8.38;;;-0.40;99.90;;;;;;4936639;29;20135;-80
2022/02/13 06:11:55;;;;;;;14.27;7.82;;;-0.50;99.90;;;;;;4936504;29;20048;-81
2022/02/13 06:14:22;;;;;;;12.93;7.57;;;-0.60;99.90;;;;;;4938567;29;20139;-80
2022/02/13 06:16:49;;;;;;;13.38;7.57;;;-0.60;99.90;;;;;;4938809;29;20134;-79
2022/02/13 06:19:16;;;;;;;12.45;7.32;;;-0.50;99.90;;;;;;4938370;29;20052;-81
2022/02/13 06:21:43;;;;;;;12.98;7.10;;;-0.50;99.90;;;;;;4935673;29;20055;-79
2022/02/13 06:24:12;;;;;;;12.32;6.90;;;-0.40;99.90;;;;;;4936474;29;20083;-79
2022/02/13 06:26:39;;;;;;;13.35;7.15;;;-0.40;99.90;;;;;;4929930;29;20040;-77
2022/02/13 06:29:08;;;;;;;11.88;7.20;;;-0.30;99.90;;;;;;4936071;29;20053;-78
2022/02/13 06:31:35;;;;;;;14.32;7.80;;;-0.20;99.90;;;;;;4938248;29;20063;-78
2022/02/13 06:34:02;;;;;;;13.05;7.63;;;-0.20;99.90;;;;;;4938126;29;20134;-78
2022/02/13 06:36:29;;;;;;;14.50;7.80;;;-0.20;99.90;;;;;;4938025;29;20099;-78
2022/02/13 06:38:56;;;;;;;11.18;7.00;;;-0.10;99.90;;;;;;4938192;29;20055;-78
2022/02/13 06:41:25;;;;;;;13.15;6.88;;;-0.10;99.90;;;;;;4920424;29;20074;-77
2022/02/13 06:43:52;;;;;;;12.75;6.93;;;0.00;99.90;;;;;;4919114;29;20138;-78
2022/02/13 06:46:19;;;;;;;13.75;7.15;;;0.00;99.90;;;;;;4926299;29;20553;-78
2022/02/13 06:48:46;;;;;;;12.55;7.57;;;0.00;99.90;;;;;;4937815;29;20087;-78
2022/02/13 06:51:13;;;;;;;12.65;7.65;;;0.00;99.90;;;;;;4937885;29;20069;-78
2022/02/13 06:53:40;;;;;;;13.40;7.80;;;0.00;99.90;;;;;;4937733;29;20040;-78
2022/02/13 06:56:07;;;;;;;13.30;7.80;;;0.00;99.90;;;;;;4937427;29;20486;-79
2022/02/13 06:58:36;;;;;;;13.52;8.00;;;0.00;99.90;;;;;;4937841;29;20047;-78
2022/02/13 07:01:03;;;;;;;13.25;7.40;;;0.00;99.90;;;;;;4937714;29;20062;-79
2022/02/13 07:03:30;;;;;;;14.25;7.65;;;0.00;99.90;;;;;;4937288;29;20050;-78
2022/02/13 07:05:58;;;;;;;10.48;6.80;;;0.10;99.90;;;;;;4937470;29;20515;-79
2022/02/13 07:08:25;;;;;;;12.48;7.63;;;0.00;99.90;;;;;;4937694;29;20056;-79
2022/02/13 07:10:52;;;;;;;14.55;8.02;;;0.10;99.90;;;;;;4937504;29;20500;-80
2022/02/13 07:13:19;;;;;;;14.60;8.02;;;0.10;99.90;;;;;;4937100;29;20051;-79
2022/02/13 07:15:48;;;;;;;14.38;7.30;;;0.10;99.90;;;;;;4937431;29;20131;-78
2022/02/13 07:18:15;;;;;;;12.73;8.13;;;0.10;99.90;;;;;;4937609;29;20051;-78
2022/02/13 07:20:42;;;;;;;12.48;7.47;;;0.00;99.90;;;;;;4937103;29;20497;-78
2022/02/13 07:23:12;;;;;;;12.88;7.28;;;0.00;99.90;;;;;;4929761;29;20131;-79
2022/02/13 07:25:39;;;;;;;12.75;7.80;;;-0.10;99.90;;;;;;4929679;29;20131;-79
2022/02/13 07:30:49;;;;;;;12.77;7.45;;;-0.10;99.90;;;;;;4922630;29;20521;-79
2022/02/13 07:33:16;;;;;;;12.15;7.63;;;-0.10;99.90;;;;;;4934776;29;20126;-79
2022/02/13 07:35:43;;;;;;;15.82;8.40;;;0.00;99.90;;;;;;4936876;29;20126;-79
2022/02/13 07:38:11;;;;;;;15.70;8.48;;;0.00;99.90;;;;;;4936616;29;20055;-79
2022/02/13 07:40:38;;;;;;;15.13;8.88;;;0.10;99.90;;;;;;4931703;29;20055;-78
2022/02/13 07:43:05;;;;;;;14.02;8.63;;;0.10;99.90;;;;;;4920983;29;20075;-79
2022/02/13 07:45:33;;;;;;;15.27;8.75;;;0.20;99.90;;;;;;4937151;29;20131;-79
2022/02/13 07:48:01;;;;;;;14.20;8.38;;;0.30;99.90;;;;;;4936733;29;20048;-79
2022/02/13 07:50:28;;;;;;;14.25;8.40;;;0.30;99.90;;;;;;4936982;29;20086;-79
2022/02/13 07:52:55;;;;;;;16.08;8.40;;;0.40;99.90;;;;;;4936595;29;20139;-78
2022/02/13 07:55:22;;;;;;;13.32;8.38;;;0.40;99.90;;;;;;4936658;29;20067;-78
2022/02/13 07:57:50;;;;;;;12.32;7.97;;;0.40;99.90;;;;;;4936935;29;20126;-81
2022/02/13 08:00:18;;;;;;;13.85;8.35;;;0.50;99.90;;;;;;4936639;29;20509;-83
2022/02/13 08:02:45;;;;;;;12.48;8.07;;;0.50;99.90;;;;;;4936939;29;20126;-81
2022/02/13 08:05:14;;;;;;;13.98;8.15;;;0.60;99.90;;;;;;4936572;29;20055;-81
2022/02/13 08:07:51;;;;;;;13.98;8.13;;;0.60;99.90;;;;;;4936676;29;20584;-81
2022/02/13 08:10:19;;;;;;;14.38;8.07;;;0.70;99.90;;;;;;4936834;29;20051;-80
2022/02/13 08:12:47;;;;;;;15.15;8.05;;;0.80;99.90;;;;;;4936705;29;20584;-81
2022/02/13 08:15:15;;;;;;;13.88;8.40;;;0.80;99.90;;;;;;4933004;29;20424;-80
2022/02/13 08:17:42;;;;;;;13.25;8.48;;;0.80;99.90;;;;;;4936332;29;20134;-80
2022/02/13 08:20:14;;;;;;;13.85;7.90;;;0.90;99.90;;;;;;4936326;29;20138;-80
2022/02/13 08:22:43;;;;;;;16.50;8.93;;;0.90;99.90;;;;;;4936142;29;20102;-79
2022/02/13 08:25:11;;;;;;;17.63;9.38;;;1.00;99.90;;;;;;4936438;29;20058;-78
2022/02/13 08:27:38;;;;;;;13.98;8.30;;;1.10;99.90;;;;;;4936154;29;20086;-78
2022/02/13 08:30:07;;;;;;;14.23;7.95;;;1.10;99.90;;;;;;4936257;29;20048;-83
2022/02/13 08:32:34;;;;;;;13.75;7.15;;;1.20;99.90;;;;;;4935731;29;20131;-81
2022/02/13 08:35:01;;;;;;;13.38;7.32;;;1.30;99.90;;;;;;4935507;29;20047;-81
2022/02/13 08:37:28;;;;;;;11.65;7.25;;;1.30;99.90;;;;;;4930852;29;20054;-81
2022/02/13 08:39:56;;;;;;;10.68;6.80;;;1.40;99.90;;;;;;4918641;29;20481;-80
2022/02/13 08:42:24;;;;;;;12.65;6.97;;;1.50;99.90;;;;;;4935885;29;20091;-81
2022/02/13 08:44:51;;;;;;;11.93;6.85;;;1.50;99.90;;;;;;4932723;29;20486;-79
2022/02/13 08:47:18;;;;;;;11.65;7.10;;;1.60;99.90;;;;;;4935631;29;20519;-81
2022/02/13 08:49:47;;;;;;;11.55;7.22;;;1.60;99.90;;;;;;4934783;29;20107;-80
2022/02/13 08:52:14;;;;;;;12.93;7.47;;;1.70;99.90;;;;;;4932734;29;20131;-79
2022/02/13 08:54:41;;;;;;;13.30;7.28;;;1.80;99.90;;;;;;4935467;29;20138;-78
2022/02/13 08:57:10;;;;;;;16.60;8.15;;;1.90;99.90;;;;;;4916862;29;20045;-79
2022/02/13 08:59:37;;;;;;;14.25;7.78;;;1.90;99.90;;;;;;4916978;29;20059;-80
2022/02/13 09:02:05;;;;;;;14.23;8.25;;;2.00;99.90;;;;;;4947441;29;20153;-80
2022/02/13 09:04:34;;;;;;;13.18;7.82;;;2.10;99.90;;;;;;4935602;29;20138;-80
2022/02/13 09:07:01;;;;;;;12.75;7.65;;;2.20;99.90;;;;;;4935391;29;20047;-79
2022/02/13 09:09:28;;;;;;;15.57;7.88;;;2.20;99.90;;;;;;4935531;29;20083;-80
2022/02/13 09:11:56;;;;;;;12.02;7.53;;;2.30;99.90;;;;;;4935554;29;20449;-80
2022/02/13 09:14:24;;;;;;;13.20;7.65;;;2.40;99.90;;;;;;4935459;29;20130;-79
2022/02/13 09:16:52;;;;;;;13.30;7.85;;;2.50;99.90;;;;;;4935394;29;20090;-79
2022/02/13 09:19:20;;;;;;;12.25;7.43;;;2.50;99.90;;;;;;4934687;29;20050;-80
2022/02/13 09:21:51;;;;;;;12.95;7.32;;;2.60;99.90;;;;;;4934167;29;20055;-80
2022/02/13 09:24:19;;;;;;;12.82;7.13;;;2.70;99.90;;;;;;4935678;29;20142;-80
2022/02/13 09:26:46;;;;;;;10.32;6.93;;;2.80;99.90;;;;;;4935338;29;20055;-80
2022/02/13 09:29:13;;;;;;;12.68;7.40;;;2.90;99.90;;;;;;4935215;29;20048;-81
2022/02/13 09:31:42;;;;;;;12.05;7.75;;;3.00;99.90;;;;;;4935719;29;20143;-81
2022/02/13 09:34:12;;;;;;;13.65;8.30;;;3.10;99.90;;;;;;4935546;29;20051;-81
2022/02/13 09:36:40;;;;;;;14.20;8.57;;;3.20;99.70;;;;;;4935711;29;20079;-80
2022/02/13 09:39:07;;;;;;;11.75;7.60;;;3.20;99.50;;;;;;4933427;29;20039;-81
2022/02/13 09:41:34;;;;;;;11.75;7.20;;;3.30;99.50;;;;;;4935233;29;20144;-79
2022/02/13 09:44:01;;;;;;;13.02;7.40;;;3.30;99.60;;;;;;4935381;29;20076;-79
2022/02/13 09:46:31;;;;;;;11.85;7.07;;;3.40;99.60;;;;;;4935315;29;20055;-77
2022/02/13 09:48:59;;;;;;;11.93;7.35;;;3.50;99.90;;;;;;4937297;29;20146;-79
2022/02/13 09:51:26;;;;;;;12.50;7.70;;;3.60;99.70;;;;;;4938960;29;20130;-77
2022/02/13 09:53:54;;;;;;;12.63;7.88;;;3.60;99.80;;;;;;4937982;29;20072;-80
2022/02/13 09:56:21;;;;;;;11.63;7.47;;;3.70;99.90;;;;;;4938883;29;20139;-78
2022/02/13 09:58:48;;;;;;;11.23;7.35;;;3.80;99.90;;;;;;4938944;29;20126;-79
2022/02/13 10:01:15;;;;;;;13.35;7.78;;;3.90;99.80;;;;;;4938791;29;20087;-78
2022/02/13 10:03:45;;;;;;;13.18;8.27;;;4.00;99.70;;;;;;4938745;29;20461;-79
2022/02/13 10:06:25;;;;;;;11.98;8.18;;;4.10;99.60;;;;;;4938834;29;20386;-78
2022/02/13 10:08:54;;;;;;;13.52;8.50;;;4.20;99.50;;;;;;4938403;29;20082;-77
2022/02/13 10:11:24;;;;;;;13.07;8.43;;;4.30;99.60;;;;;;4938520;29;20130;-77
2022/02/13 10:13:54;;;;;;;14.27;9.02;;;4.30;99.20;;;;;;4928714;29;20124;-81
2022/02/13 10:16:25;;;;;;;12.60;8.75;;;4.40;99.10;;;;;;4941568;29;20128;-84
2022/02/13 10:18:56;;;;;;;14.43;9.00;;;4.50;99.00;;;;;;4941337;29;20571;-84
2022/02/13 10:21:44;;;;;;;14.55;8.80;;;4.60;98.90;;;;;;4940105;29;20063;-83
2022/02/13 10:24:27;;;;;;;13.50;8.60;;;4.70;98.90;;;;;;4941153;29;20138;-88
2022/02/13 10:27:11;;;;;;;14.63;8.65;;;4.80;99.00;;;;;;4940004;29;20505;-83
2022/02/13 10:29:41;;;;;;;13.40;8.70;;;4.90;98.60;;;;;;4940573;29;20111;-86
2022/02/13 10:32:28;;;;;;;14.20;8.70;;;5.00;98.40;;;;;;4941751;29;20059;-84
2022/02/13 10:35:03;;;;;;;12.75;8.50;;;5.10;98.50;;;;;;4942984;29;20056;-85
2022/02/13 10:37:44;;;;;;;15.25;9.15;;;5.20;98.30;;;;;;4941379;29;20134;-85
2022/02/13 10:40:15;;;;;;;14.80;8.50;;;5.30;98.20;;;;;;4941635;29;20117;-88
2022/02/13 10:42:43;;;;;;;11.98;8.02;;;5.40;98.20;;;;;;4939303;29;20087;-81
2022/02/13 10:45:22;;;;;;;12.63;7.97;;;5.50;98.50;;;;;;4938498;29;20052;-76
2022/02/13 10:47:51;;;;;;;13.07;8.50;;;5.60;98.30;;;;;;4938664;29;20110;-81
2022/02/13 10:50:21;;;;;;;12.13;7.82;;;5.70;98.10;;;;;;4938083;29;20146;-80
2022/02/13 10:52:52;;;;;;;13.93;7.97;;;5.80;98.10;;;;;;4938551;29;20322;-81
2022/02/13 10:55:20;;;;;;;10.65;7.38;;;5.90;98.00;;;;;;4938632;29;20058;-82
2022/02/13 10:57:47;;;;;;;12.40;7.97;;;6.00;98.10;;;;;;4938831;29;20058;-81
2022/02/13 11:00:18;;;;;;;12.45;7.68;;;6.10;97.70;;;;;;4935759;29;20577;-79
2022/02/13 11:02:47;;;;;;;10.45;6.90;;;6.20;97.60;;;;;;4919575;29;20668;-80
2022/02/13 11:05:15;;;;;;;11.80;6.93;;;6.30;97.60;;;;;;4920198;29;20150;-81
2022/02/13 11:07:48;;;;;;;10.60;6.78;;;6.40;97.50;;;;;;4937184;29;20126;-78
2022/02/13 11:10:20;;;;;;;11.52;6.80;;;;;;;;;;4937170;29;20079;-79
2022/02/13 11:12:49;;;;;;;11.57;7.22;;;6.60;97.00;;;;;;4937362;29;20052;-78
2022/02/13 11:15:19;;;;;;;11.77;6.35;;;6.80;96.90;;;;;;4937187;29;20106;-78
2022/02/13 11:17:48;;;;;;;11.27;6.32;;;6.90;96.70;;;;;;4936768;29;20051;-79
2022/02/13 11:20:17;;;;;;;11.15;6.38;;;7.00;96.60;;;;;;4937448;29;20130;-82
2022/02/13 11:22:47;;;;;;;10.90;6.85;;;7.10;96.70;;;;;;4937868;29;20051;-82
2022/02/13 11:25:16;;;;;;;10.15;5.75;;;7.20;96.70;;;;;;4937566;29;20107;-81
2022/02/13 11:27:57;;;;;;;11.35;6.75;;;7.40;97.20;;;;;;4938530;29;20146;-81
2022/02/13 11:30:44;;;;;;;13.93;8.63;;;7.60;97.00;;;;;;4938820;29;20063;-84
2022/02/13 11:33:42;;;;;;;14.20;7.70;;;7.70;95.90;;;;;;4938833;29;20580;-82
2022/02/13 11:36:13;;;;;;;13.88;7.70;;;7.90;96.30;;;;;;4937662;29;20130;-81
2022/02/13 11:38:55;;;;;;;13.20;8.02;;;8.00;95.90;;;;;;4937311;29;20070;-81
2022/02/13 11:42:00;;;;;;;12.52;7.45;;;8.00;95.60;;;;;;4936523;29;20404;-81
2022/02/13 11:44:41;;;;;;;12.18;6.80;;;8.10;95.50;;;;;;4929811;29;20135;-80
2022/02/13 11:47:10;;;;;;;10.75;6.53;;;8.10;95.10;;;;;;4938476;29;20075;-82
2022/02/13 11:50:24;;;;;;;11.18;6.55;;;8.20;95.00;;;;;;4938001;29;20461;-83
2022/02/13 11:52:56;;;;;;;;;;;8.30;94.80;;;;;;4903603;29;20061;-80
2022/02/13 11:55:26;;;;;;;12.05;6.63;;;8.40;94.40;;;;;;4936490;29;20451;-79
2022/02/13 11:57:57;;;;;;;11.35;6.40;;;8.50;94.20;;;;;;4932431;29;20051;-78
2022/02/13 12:00:47;;;;;;;10.95;6.18;;;8.70;93.90;;;;;;4935556;29;20044;-80
2022/02/13 12:03:27;;;;;;;10.63;6.10;;;8.80;93.60;;;;;;4933128;29;20047;-78
2022/02/13 12:06:27;;;;;;;9.93;5.82;;;8.90;93.10;;;;;;4917439;29;20052;-79
2022/02/13 12:08:58;;;;;;;11.52;6.85;;;9.00;92.80;;;;;;4916360;29;20048;-79
2022/02/13 12:11:36;;;;;;;11.20;6.60;;;9.20;92.40;;;;;;4936574;29;20102;-81
2022/02/13 12:14:16;;;;;;;9.45;5.70;;;9.30;91.90;;;;;;4935448;29;20142;-80
2022/02/13 12:16:56;;;;;;;10.90;5.18;;;9.50;88.90;;;;;;4929939;29;20058;-82
2022/02/13 12:19:33;;;;;;;9.60;5.18;;;9.70;87.40;;;;;;4938056;29;20072;-81
2022/02/13 12:22:12;;;;;;;8.18;4.25;;;9.90;86.90;;;;;;4928501;29;20055;-81
2022/02/13 12:24:40;;;;;;;9.07;4.30;;;10.10;84.50;;;;;;4937732;29;20059;-82
2022/02/13 12:27:09;;;;;;;6.93;3.60;;;10.30;80.70;;;;;;4937839;29;20205;-82
2022/02/13 12:29:49;;;;;;;8.35;3.78;;;10.50;78.10;;;;;;4937141;29;20043;-82
2022/02/13 12:32:18;;;;;;;9.57;4.38;;;10.60;72.70;;;;;;4930450;29;20051;-85
2022/02/13 12:34:59;;;;;;;7.15;3.95;;;10.70;69.80;;;;;;4934222;29;20505;-81
2022/02/13 12:37:41;;;;;;;8.85;4.13;;;10.90;69.40;;;;;;4936473;29;20135;-83
2022/02/13 12:40:11;;;;;;;9.63;3.85;;;11.10;68.50;;;;;;4937887;29;20430;-84
2022/02/13 12:42:42;;;;;;;9.13;4.10;;;11.20;68.00;;;;;;4927384;29;20134;-83
2022/02/13 12:45:11;;;;;;;7.72;4.47;;;11.40;65.80;;;;;;4937724;29;20075;-82
2022/02/13 12:47:42;;;;;;;9.73;4.28;;;11.40;65.40;;;;;;4937359;29;20134;-83
2022/02/13 12:50:12;;;;;;;8.80;3.97;;;11.50;65.70;;;;;;4937596;29;20485;-84
2022/02/13 12:52:41;;;;;;;10.48;4.25;;;11.70;65.20;;;;;;4937962;29;20590;-82
2022/02/13 12:55:11;;;;;;;8.65;4.05;;;11.90;64.40;;;;;;4937707;29;20441;-83
2022/02/13 12:57:39;;;;;;;8.50;4.32;;;12.10;64.60;;;;;;4937726;29;20051;-84
2022/02/13 13:00:11;;;;;;;11.10;4.63;;;12.30;63.60;;;;;;4937417;29;20490;-81